sensor_id;sensor_type;location;lat;lon;timestamp;P1;durP1;ratioP1;P2;durP2;ratioP2
40304;SDS011;26010;52.418;20.728;2022-07-29T00:01:38;18.93;;;17.60;;
40304;SDS011;26010;52.418;20.728;2022-07-29T00:11:39;14.33;;;12.20;;
40304;SDS011;26010;52.418;20.728;2022-07-29T00:21:40;12.23;;;11.13;;
40304;SDS011;26010;52.418;20.728;2022-07-29T00:31:40;14.03;;;12.93;;
40304;SDS011;26010;52.418;20.728;2022-07-29T00:41:41;14.17;;;12.87;;
40304;SDS011;26010;52.418;20.728;2022-07-29T00:51:42;17.13;;;13.80;;
40304;SDS011;26010;52.418;20.728;2022-07-29T01:01:43;14.60;;;13.30;;
40304;SDS011;26010;52.418;20.728;2022-07-29T01:11:44;13.97;;;12.87;;
40304;SDS011;26010;52.418;20.728;2022-07-29T01:42:02;14.83;;;13.63;;
40304;SDS011;26010;52.418;20.728;2022-07-29T01:52:11;18.27;;;16.63;;
40304;SDS011;26010;52.418;20.728;2022-07-29T02:02:16;19.73;;;18.17;;
40304;SDS011;26010;52.418;20.728;2022-07-29T02:12:18;17.53;;;16.23;;
40304;SDS011;26010;52.418;20.728;2022-07-29T02:22:19;24.87;;;23.17;;
40304;SDS011;26010;52.418;20.728;2022-07-29T02:32:21;16.87;;;15.67;;
40304;SDS011;26010;52.418;20.728;2022-07-29T02:42:23;15.43;;;13.93;;
40304;SDS011;26010;52.418;20.728;2022-07-29T03:02:36;14.17;;;13.13;;
40304;SDS011;26010;52.418;20.728;2022-07-29T03:12:38;16.50;;;15.07;;
40304;SDS011;26010;52.418;20.728;2022-07-29T03:22:39;18.93;;;17.63;;
40304;SDS011;26010;52.418;20.728;2022-07-29T03:32:43;20.67;;;18.97;;
40304;SDS011;26010;52.418;20.728;2022-07-29T03:42:44;21.87;;;20.30;;
40304;SDS011;26010;52.418;20.728;2022-07-29T03:52:46;22.67;;;21.13;;
40304;SDS011;26010;52.418;20.728;2022-07-29T04:02:47;23.07;;;21.60;;
40304;SDS011;26010;52.418;20.728;2022-07-29T04:12:49;24.27;;;22.63;;
40304;SDS011;26010;52.418;20.728;2022-07-29T04:22:49;18.40;;;16.63;;
40304;SDS011;26010;52.418;20.728;2022-07-29T04:32:50;16.33;;;15.10;;
40304;SDS011;26010;52.418;20.728;2022-07-29T04:42:51;20.83;;;19.27;;
40304;SDS011;26010;52.418;20.728;2022-07-29T04:52:52;19.53;;;18.17;;
40304;SDS011;26010;52.418;20.728;2022-07-29T05:02:52;24.80;;;23.20;;
40304;SDS011;26010;52.418;20.728;2022-07-29T05:12:53;20.43;;;19.13;;
40304;SDS011;26010;52.418;20.728;2022-07-29T05:22:57;20.03;;;18.63;;
40304;SDS011;26010;52.418;20.728;2022-07-29T05:32:58;18.67;;;17.33;;
40304;SDS011;26010;52.418;20.728;2022-07-29T05:42:59;23.67;;;21.97;;
40304;SDS011;26010;52.418;20.728;2022-07-29T05:53:00;15.03;;;12.77;;
40304;SDS011;26010;52.418;20.728;2022-07-29T06:03:00;14.57;;;13.37;;
40304;SDS011;26010;52.418;20.728;2022-07-29T06:13:02;17.90;;;16.43;;
40304;SDS011;26010;52.418;20.728;2022-07-29T06:23:02;35.17;;;33.00;;
40304;SDS011;26010;52.418;20.728;2022-07-29T06:33:04;21.17;;;19.92;;
40304;SDS011;26010;52.418;20.728;2022-07-29T06:43:05;46.00;;;43.60;;
40304;SDS011;26010;52.418;20.728;2022-07-29T06:53:06;43.97;;;41.57;;
40304;SDS011;26010;52.418;20.728;2022-07-29T07:03:07;48.27;;;45.07;;
40304;SDS011;26010;52.418;20.728;2022-07-29T07:13:08;22.90;;;21.47;;
40304;SDS011;26010;52.418;20.728;2022-07-29T07:23:08;24.13;;;22.80;;
40304;SDS011;26010;52.418;20.728;2022-07-29T07:33:09;18.00;;;16.87;;
40304;SDS011;26010;52.418;20.728;2022-07-29T07:43:10;18.23;;;16.77;;
40304;SDS011;26010;52.418;20.728;2022-07-29T07:53:11;16.27;;;15.00;;
40304;SDS011;26010;52.418;20.728;2022-07-29T08:03:12;8.13;;;7.53;;
40304;SDS011;26010;52.418;20.728;2022-07-29T08:13:14;8.10;;;7.50;;
40304;SDS011;26010;52.418;20.728;2022-07-29T08:23:14;7.20;;;6.50;;
40304;SDS011;26010;52.418;20.728;2022-07-29T08:33:16;10.65;;;9.77;;
40304;SDS011;26010;52.418;20.728;2022-07-29T08:43:16;10.52;;;9.73;;
40304;SDS011;26010;52.418;20.728;2022-07-29T08:53:17;8.95;;;8.05;;
40304;SDS011;26010;52.418;20.728;2022-07-29T09:03:19;8.70;;;6.33;;
40304;SDS011;26010;52.418;20.728;2022-07-29T09:13:21;6.10;;;5.33;;
40304;SDS011;26010;52.418;20.728;2022-07-29T09:23:22;9.80;;;8.10;;
40304;SDS011;26010;52.418;20.728;2022-07-29T09:33:24;9.60;;;7.73;;
40304;SDS011;26010;52.418;20.728;2022-07-29T09:43:25;11.70;;;10.80;;
40304;SDS011;26010;52.418;20.728;2022-07-29T09:53:29;13.43;;;11.97;;
40304;SDS011;26010;52.418;20.728;2022-07-29T10:03:30;7.90;;;7.27;;
40304;SDS011;26010;52.418;20.728;2022-07-29T10:13:31;5.73;;;5.17;;
40304;SDS011;26010;52.418;20.728;2022-07-29T10:23:32;7.47;;;6.10;;
40304;SDS011;26010;52.418;20.728;2022-07-29T10:33:47;6.17;;;4.60;;
40304;SDS011;26010;52.418;20.728;2022-07-29T10:43:59;5.43;;;4.90;;
40304;SDS011;26010;52.418;20.728;2022-07-29T10:54:01;4.97;;;4.30;;
40304;SDS011;26010;52.418;20.728;2022-07-29T11:04:06;5.60;;;4.15;;
40304;SDS011;26010;52.418;20.728;2022-07-29T11:14:06;6.05;;;4.10;;
40304;SDS011;26010;52.418;20.728;2022-07-29T11:24:13;5.15;;;4.68;;
40304;SDS011;26010;52.418;20.728;2022-07-29T11:44:18;5.47;;;4.40;;
40304;SDS011;26010;52.418;20.728;2022-07-29T11:54:39;5.32;;;4.47;;
40304;SDS011;26010;52.418;20.728;2022-07-29T12:04:51;7.70;;;7.10;;
40304;SDS011;26010;52.418;20.728;2022-07-29T12:14:52;5.60;;;4.85;;
40304;SDS011;26010;52.418;20.728;2022-07-29T12:24:55;5.25;;;4.75;;
40304;SDS011;26010;52.418;20.728;2022-07-29T12:34:56;9.63;;;8.30;;
40304;SDS011;26010;52.418;20.728;2022-07-29T12:44:58;9.50;;;8.80;;
40304;SDS011;26010;52.418;20.728;2022-07-29T12:54:59;11.40;;;10.50;;
40304;SDS011;26010;52.418;20.728;2022-07-29T13:05:00;11.77;;;10.75;;
40304;SDS011;26010;52.418;20.728;2022-07-29T13:15:11;13.80;;;11.00;;
40304;SDS011;26010;52.418;20.728;2022-07-29T13:25:12;11.65;;;10.30;;
40304;SDS011;26010;52.418;20.728;2022-07-29T13:35:12;9.65;;;7.95;;
40304;SDS011;26010;52.418;20.728;2022-07-29T13:45:13;9.82;;;9.10;;
40304;SDS011;26010;52.418;20.728;2022-07-29T13:55:14;17.70;;;8.75;;
40304;SDS011;26010;52.418;20.728;2022-07-29T14:05:15;12.25;;;11.25;;
40304;SDS011;26010;52.418;20.728;2022-07-29T14:15:16;10.65;;;9.95;;
40304;SDS011;26010;52.418;20.728;2022-07-29T14:25:17;11.90;;;11.10;;
40304;SDS011;26010;52.418;20.728;2022-07-29T14:35:18;17.23;;;15.70;;
40304;SDS011;26010;52.418;20.728;2022-07-29T14:45:19;16.20;;;15.02;;
40304;SDS011;26010;52.418;20.728;2022-07-29T14:55:20;13.60;;;12.73;;
40304;SDS011;26010;52.418;20.728;2022-07-29T15:05:21;14.32;;;13.43;;
40304;SDS011;26010;52.418;20.728;2022-07-29T15:15:22;6.47;;;5.75;;
40304;SDS011;26010;52.418;20.728;2022-07-29T15:25:23;6.70;;;4.68;;
40304;SDS011;26010;52.418;20.728;2022-07-29T15:35:24;7.82;;;7.18;;
40304;SDS011;26010;52.418;20.728;2022-07-29T15:45:25;5.95;;;4.47;;
40304;SDS011;26010;52.418;20.728;2022-07-29T15:55:26;5.53;;;4.90;;
40304;SDS011;26010;52.418;20.728;2022-07-29T16:05:26;8.98;;;8.32;;
40304;SDS011;26010;52.418;20.728;2022-07-29T16:15:29;5.88;;;5.20;;
40304;SDS011;26010;52.418;20.728;2022-07-29T16:25:29;8.70;;;8.00;;
40304;SDS011;26010;52.418;20.728;2022-07-29T16:35:30;5.40;;;4.20;;
40304;SDS011;26010;52.418;20.728;2022-07-29T16:45:31;7.13;;;5.13;;
40304;SDS011;26010;52.418;20.728;2022-07-29T16:55:32;10.15;;;9.32;;
40304;SDS011;26010;52.418;20.728;2022-07-29T17:05:33;14.07;;;13.07;;
40304;SDS011;26010;52.418;20.728;2022-07-29T17:15:34;18.48;;;17.20;;
40304;SDS011;26010;52.418;20.728;2022-07-29T17:25:35;22.50;;;21.23;;
40304;SDS011;26010;52.418;20.728;2022-07-29T17:35:35;19.08;;;17.75;;
40304;SDS011;26010;52.418;20.728;2022-07-29T17:45:55;11.80;;;11.07;;
40304;SDS011;26010;52.418;20.728;2022-07-29T17:55:55;7.60;;;7.00;;
40304;SDS011;26010;52.418;20.728;2022-07-29T18:05:58;7.40;;;6.70;;
40304;SDS011;26010;52.418;20.728;2022-07-29T18:15:58;8.83;;;8.10;;
40304;SDS011;26010;52.418;20.728;2022-07-29T18:25:59;9.73;;;8.73;;
40304;SDS011;26010;52.418;20.728;2022-07-29T18:46:01;19.55;;;18.20;;
40304;SDS011;26010;52.418;20.728;2022-07-29T18:56:02;17.60;;;16.13;;
40304;SDS011;26010;52.418;20.728;2022-07-29T19:06:02;13.60;;;12.63;;
40304;SDS011;26010;52.418;20.728;2022-07-29T19:16:04;14.00;;;12.77;;
40304;SDS011;26010;52.418;20.728;2022-07-29T19:26:05;18.48;;;16.90;;
40304;SDS011;26010;52.418;20.728;2022-07-29T19:36:06;24.40;;;22.50;;
40304;SDS011;26010;52.418;20.728;2022-07-29T19:46:06;35.40;;;32.73;;
40304;SDS011;26010;52.418;20.728;2022-07-29T19:56:07;35.43;;;33.10;;
40304;SDS011;26010;52.418;20.728;2022-07-29T20:06:08;37.60;;;35.47;;
40304;SDS011;26010;52.418;20.728;2022-07-29T20:16:09;38.90;;;36.30;;
40304;SDS011;26010;52.418;20.728;2022-07-29T20:26:09;41.33;;;38.73;;
40304;SDS011;26010;52.418;20.728;2022-07-29T20:36:10;40.37;;;37.43;;
40304;SDS011;26010;52.418;20.728;2022-07-29T20:46:11;33.50;;;31.43;;
40304;SDS011;26010;52.418;20.728;2022-07-29T20:56:12;34.93;;;32.30;;
40304;SDS011;26010;52.418;20.728;2022-07-29T21:06:13;34.50;;;31.83;;
40304;SDS011;26010;52.418;20.728;2022-07-29T21:16:15;31.67;;;29.27;;
40304;SDS011;26010;52.418;20.728;2022-07-29T21:26:18;30.03;;;27.83;;
40304;SDS011;26010;52.418;20.728;2022-07-29T21:36:20;28.17;;;26.63;;
40304;SDS011;26010;52.418;20.728;2022-07-29T21:46:21;28.97;;;27.23;;
40304;SDS011;26010;52.418;20.728;2022-07-29T21:56:21;29.37;;;27.73;;
40304;SDS011;26010;52.418;20.728;2022-07-29T22:06:22;27.80;;;26.03;;
40304;SDS011;26010;52.418;20.728;2022-07-29T22:16:23;26.50;;;24.70;;
40304;SDS011;26010;52.418;20.728;2022-07-29T22:26:24;29.57;;;27.30;;
40304;SDS011;26010;52.418;20.728;2022-07-29T22:36:25;28.77;;;27.20;;
40304;SDS011;26010;52.418;20.728;2022-07-29T22:46:26;28.07;;;26.53;;
40304;SDS011;26010;52.418;20.728;2022-07-29T22:56:27;31.67;;;29.93;;
40304;SDS011;26010;52.418;20.728;2022-07-29T23:06:27;31.00;;;29.23;;
40304;SDS011;26010;52.418;20.728;2022-07-29T23:16:28;31.70;;;29.83;;
40304;SDS011;26010;52.418;20.728;2022-07-29T23:26:29;30.63;;;28.70;;
40304;SDS011;26010;52.418;20.728;2022-07-29T23:36:31;27.93;;;26.20;;
40304;SDS011;26010;52.418;20.728;2022-07-29T23:46:31;30.80;;;28.77;;
40304;SDS011;26010;52.418;20.728;2022-07-29T23:56:32;31.53;;;29.80;;
